Time;durP1;ratioP1;P1;durP2;ratioP2;P2;SDS_P1;SDS_P2;PMS_P1;PMS_P2;Temp;Humidity;BMP_temperature;BMP_pressure;BME280_temperature;BME280_humidity;BME280_pressure;Samples;Min_cycle;Max_cycle;Signal;HPM_P1;HPM_P2
2021/05/20 04:38:10;;;;;;;11.25;7.05;;;;;;;7.71;78.16;100077.84;5191281;27;20341;-67
2021/05/20 04:40:37;;;;;;;16.48;9.13;;;;;;;7.90;78.20;100076.84;5193434;27;20487;-63
2021/05/20 04:43:03;;;;;;;11.88;7.82;;;;;;;8.10;78.80;100082.78;5194212;27;20023;-64
2021/05/20 04:45:28;;;;;;;12.10;7.90;;;;;;;8.29;78.26;100076.41;5194285;27;20026;-65
2021/05/20 04:47:54;;;;;;;12.00;7.93;;;;;;;8.45;77.85;100076.53;5194483;27;33577;-65
2021/05/20 04:50:19;;;;;;;14.00;7.75;;;;;;;8.60;77.90;100078.59;5195286;27;20099;-66
2021/05/20 04:52:44;;;;;;;10.40;7.25;;;;;;;8.72;77.47;100082.59;5195101;27;20079;-66
2021/05/20 04:55:10;;;;;;;13.45;8.50;;;;;;;8.85;77.79;100076.00;5193700;27;20481;-62
2021/05/20 04:57:36;;;;;;;10.57;7.18;;;;;;;8.94;77.48;100080.34;5193565;27;20062;-64
2021/05/20 05:00:04;;;;;;;10.50;6.88;;;;;;;9.08;77.40;100086.84;5192554;27;36342;-62
2021/05/20 05:02:29;;;;;;;10.38;6.57;;;;;;;9.21;77.57;100083.72;5194685;27;20482;-63
2021/05/20 05:04:55;;;;;;;10.18;6.22;;;;;;;9.33;77.58;100090.38;5194196;27;41501;-62
2021/05/20 05:07:20;;;;;;;9.32;6.60;;;;;;;9.48;77.34;100093.22;5194572;27;20023;-62
2021/05/20 05:09:46;;;;;;;10.27;6.72;;;;;;;9.63;77.32;100085.41;5195199;27;20026;-69
2021/05/20 05:12:11;;;;;;;18.67;8.35;;;;;;;9.75;77.47;100092.03;5193737;27;35314;-64
2021/05/20 05:14:36;;;;;;;10.90;7.35;;;;;;;9.89;77.15;100087.88;5194089;27;38561;-63
2021/05/20 05:17:02;;;;;;;16.35;7.53;;;;;;;10.03;77.12;100091.66;5194299;27;30843;-64
2021/05/20 05:19:27;;;;;;;11.95;6.95;;;;;;;10.16;76.94;100086.66;5193028;27;28786;-63
2021/05/20 05:21:53;;;;;;;11.38;6.95;;;;;;;10.29;77.03;100095.94;5194849;27;20522;-63
2021/05/20 05:24:18;;;;;;;11.13;6.75;;;;;;;10.43;77.00;100087.28;5194505;27;20106;-61
2021/05/20 05:26:43;;;;;;;13.65;6.93;;;;;;;10.59;76.68;100085.56;5194736;27;20031;-61
2021/05/20 05:29:09;;;;;;;9.30;6.03;;;;;;;10.71;76.26;100088.69;5194344;27;20023;-62
2021/05/20 05:31:36;;;;;;;11.63;7.30;;;;;;;10.83;76.17;100084.63;5194697;27;20029;-64
2021/05/20 05:34:01;;;;;;;12.00;7.47;;;;;;;10.95;75.56;100085.88;5194280;27;20505;-64
2021/05/20 05:36:27;;;;;;;10.23;7.13;;;;;;;11.00;75.84;100083.53;5193429;27;20053;-68
2021/05/20 05:38:52;;;;;;;9.90;7.40;;;;;;;11.04;75.13;100092.00;5193566;27;36015;-65
2021/05/20 05:41:18;;;;;;;10.57;7.18;;;;;;;11.11;75.01;100092.97;5192915;27;20100;-66
2021/05/20 05:43:43;;;;;;;11.85;6.60;;;;;;;11.17;75.33;100099.44;5192794;27;20458;-64
2021/05/20 05:46:09;;;;;;;8.00;6.57;;;;;;;11.23;74.91;100103.22;5193576;27;21723;-63
2021/05/20 05:48:34;;;;;;;11.60;6.63;;;;;;;11.27;74.57;100104.53;5185787;27;20023;-62
2021/05/20 05:51:00;;;;;;;11.35;6.65;;;;;;;11.34;74.02;100105.47;5180151;27;20026;-63
2021/05/20 05:53:25;;;;;;;8.07;5.85;;;;;;;11.43;74.56;100109.75;5180124;27;20053;-65
2021/05/20 05:55:51;;;;;;;9.18;6.63;;;;;;;11.57;74.82;100100.13;5160304;27;20026;-64
2021/05/20 05:58:17;;;;;;;10.27;6.60;;;;;;;11.72;74.41;100110.03;5180269;27;20078;-65
2021/05/20 06:00:44;;;;;;;15.18;7.18;;;;;;;11.80;73.87;100116.13;5178827;27;20023;-65
2021/05/20 06:03:09;;;;;;;10.48;7.00;;;;;;;11.94;74.01;100114.53;5180130;27;20106;-65
2021/05/20 06:05:35;;;;;;;10.43;7.07;;;;;;;12.06;73.96;100112.25;5142818;27;37124;-65
2021/05/20 06:08:00;;;;;;;9.90;7.20;;;;;;;12.22;73.60;100110.41;5180210;27;20092;-64
2021/05/20 06:10:26;;;;;;;10.82;6.93;;;;;;;12.30;73.95;100115.66;5179985;27;20048;-62
2021/05/20 06:12:51;;;;;;;13.13;7.75;;;;;;;12.41;72.75;100109.91;5179650;27;26311;-63
2021/05/20 06:15:16;;;;;;;10.07;6.68;;;;;;;12.55;73.00;100108.22;5178573;27;20166;-65
2021/05/20 06:17:42;;;;;;;9.07;6.13;;;;;;;12.74;73.18;100114.84;5179931;27;20037;-65
2021/05/20 06:20:08;;;;;;;9.38;5.85;;;;;;;12.95;73.14;100122.09;5179476;27;20033;-63
2021/05/20 06:22:33;;;;;;;9.32;5.85;;;;;;;13.16;72.84;100120.47;5179609;27;20091;-64
2021/05/20 06:24:58;;;;;;;13.32;6.03;;;;;;;13.32;72.37;100122.91;5178636;27;35338;-63
2021/05/20 06:27:26;;;;;;;10.77;6.82;;;;;;;13.45;71.87;100122.25;5177191;27;39507;-65
2021/05/20 06:29:55;;;;;;;8.20;6.20;;;;;;;13.57;71.55;100127.09;5179381;27;20060;-63
2021/05/20 06:32:20;;;;;;;10.98;6.28;;;;;;;13.75;71.66;100130.16;5179579;27;20031;-61
2021/05/20 06:34:46;;;;;;;9.38;5.80;;;;;;;13.87;71.07;100133.13;5179944;27;20360;-62
2021/05/20 06:37:11;;;;;;;8.13;5.72;;;;;;;14.08;71.53;100128.75;5178433;27;20047;-66
2021/05/20 06:39:37;;;;;;;10.07;7.07;;;;;;;14.26;70.80;100141.69;5178161;27;20533;-64
2021/05/20 06:42:02;;;;;;;8.23;6.30;;;;;;;14.41;70.66;100137.03;5178015;27;20031;-65
2021/05/20 06:44:28;;;;;;;8.68;5.53;;;;;;;14.59;70.50;100141.06;5179164;27;20023;-63
2021/05/20 06:46:53;;;;;;;7.72;5.38;;;;;;;14.76;70.13;100136.22;5178810;27;20034;-64
2021/05/20 06:49:19;;;;;;;10.43;6.43;;;;;;;14.94;69.96;100132.97;5178254;27;30552;-64
2021/05/20 06:51:44;;;;;;;8.90;5.32;;;;;;;15.04;68.58;100133.44;5176653;27;39290;-64
2021/05/20 06:54:09;;;;;;;8.13;5.60;;;;;;;15.10;68.84;100134.50;5178238;27;20363;-64
2021/05/20 06:56:36;;;;;;;9.60;5.63;;;;;;;15.20;68.65;100135.75;5178801;27;20033;-64
2021/05/20 07:01:46;;;;;;;7.40;5.60;;;;;;;15.60;67.70;100136.88;5175345;27;20039;-63
2021/05/20 07:04:16;;;;;;;11.30;5.43;;;;;;;15.71;67.54;100138.97;5178698;27;20402;-65
2021/05/20 07:06:41;;;;;;;6.93;5.65;;;;;;;15.83;67.64;100131.97;5179105;27;20026;-63
2021/05/20 07:09:07;;;;;;;10.15;5.25;;;;;;;16.04;67.18;100138.16;5178880;27;20390;-63
2021/05/20 07:11:32;;;;;;;14.32;5.75;;;;;;;16.20;67.46;100132.38;5178712;27;20034;-62
2021/05/20 07:13:58;;;;;;;6.28;4.13;;;;;;;16.44;66.72;100135.41;5178024;27;40424;-63
2021/05/20 07:16:23;;;;;;;7.45;4.53;;;;;;;16.65;66.36;100138.88;5157228;27;20080;-64
2021/05/20 07:18:49;;;;;;;8.75;4.65;;;;;;;16.83;65.72;100135.53;5158120;27;20996;-66
2021/05/20 08:52:39;;;;;;;5.47;3.50;;;;;;;21.17;48.10;100142.03;5184464;27;20338;-64
2021/05/20 08:55:09;;;;;;;5.65;3.28;;;;;;;21.48;48.84;100138.00;5171127;27;20187;-62
2021/05/20 08:57:35;;;;;;;5.50;4.18;;;;;;;21.96;48.07;100137.72;5178998;27;20057;-62
2021/05/20 09:00:02;;;;;;;6.70;4.88;;;;;;;21.70;45.12;100144.63;5203406;27;20507;-62
2021/05/20 09:02:29;;;;;;;5.22;3.92;;;;;;;21.03;44.09;100154.22;5192152;27;20398;-61
2021/05/20 09:05:18;;;;;;;4.63;3.53;;;;;;;20.46;44.42;100151.13;5191870;27;20113;-65
2021/05/20 09:08:00;;;;;;;7.80;3.58;;;;;;;20.09;44.57;100158.63;5170881;27;20853;-63
2021/05/20 09:10:33;;;;;;;4.32;3.20;;;;;;;20.29;46.39;100148.28;5191457;27;20038;-65
2021/05/20 09:13:00;;;;;;;4.40;3.20;;;;;;;20.66;46.86;100154.50;5155712;27;20034;-65
2021/05/20 09:15:30;;;;;;;3.90;2.90;;;;;;;20.72;44.56;100146.31;5172834;27;20806;-62
2021/05/20 09:18:15;;;;;;;7.32;3.00;;;;;;;21.07;46.82;100145.34;5168755;27;20890;-64
2021/05/20 09:20:44;;;;;;;5.85;3.25;;;;;;;21.75;47.42;100133.88;5187389;27;20043;-62
2021/05/20 09:23:11;;;;;;;7.15;3.60;;;;;;;22.59;47.19;100135.66;5191998;27;20034;-62
2021/05/20 09:25:38;;;;;;;4.88;3.22;;;;;;;22.88;44.40;100138.22;5183870;27;20030;-62
2021/05/20 09:28:04;;;;;;;4.93;3.05;;;;;;;22.57;42.27;100140.53;5175873;27;20023;-61
2021/05/20 09:30:30;;;;;;;5.30;2.95;;;;;;;21.95;41.63;100128.78;5194984;27;20030;-62
2021/05/20 09:32:57;;;;;;;6.18;2.63;;;;;;;21.45;41.41;100140.38;5176198;27;20423;-61
2021/05/20 09:35:27;;;;;;;6.82;3.10;;;;;;;20.86;40.74;100137.88;5194634;27;20055;-62
2021/05/20 09:38:01;;;;;;;6.60;3.00;;;;;;;20.35;40.68;100132.19;5193992;27;20118;-62
2021/05/20 09:40:28;;;;;;;4.38;2.95;;;;;;;19.94;40.94;100137.47;5172282;27;20026;-61
2021/05/20 09:42:54;;;;;;;5.80;3.80;;;;;;;19.65;41.80;100133.75;5194432;27;20460;-63
2021/05/20 09:45:22;;;;;;;4.13;2.83;;;;;;;19.92;42.77;100132.28;5175255;27;20022;-59
2021/05/20 09:47:48;;;;;;;5.07;3.50;;;;;;;20.29;43.30;100129.34;5194571;27;20869;-65
2021/05/20 09:50:19;;;;;;;6.95;3.00;;;;;;;20.94;43.57;100123.97;5194074;27;20033;-60
2021/05/20 09:52:45;;;;;;;4.70;3.00;;;;;;;21.15;42.39;100113.56;5190409;27;20035;-61
2021/05/20 09:55:24;;;;;;;5.63;2.60;;;;;;;21.26;41.77;100123.50;5183814;27;20122;-60
2021/05/20 09:57:50;;;;;;;4.82;3.03;;;;;;;21.18;40.89;100118.47;5183152;27;20111;-60
2021/05/20 10:00:19;;;;;;;4.70;3.00;;;;;;;20.73;39.55;100115.44;5181586;27;20106;-62
2021/05/20 10:02:45;;;;;;;7.32;3.03;;;;;;;19.94;38.43;100134.75;5187040;27;20023;-60
2021/05/20 10:05:20;;;;;;;3.53;2.63;;;;;;;19.24;38.87;100120.00;5173255;27;20045;-70
2021/05/20 10:07:45;;;;;;;4.30;1.73;;;;;;;18.74;39.23;100135.34;5177002;27;20122;-64
2021/05/20 10:10:11;;;;;;;4.18;1.92;;;;;;;18.41;39.51;100141.09;5160479;27;30886;-63
2021/05/20 10:12:39;;;;;;;3.63;1.77;;;;;;;18.11;40.32;100139.09;5179801;27;20041;-61
2021/05/20 10:15:05;;;;;;;4.25;2.30;;;;;;;18.12;41.53;100142.66;5179878;27;20399;-61
2021/05/20 10:17:31;;;;;;;3.72;2.25;;;;;;;18.72;43.86;100139.31;5126068;27;20053;-61
2021/05/20 10:19:56;;;;;;;4.15;2.13;;;;;;;19.40;43.56;100123.94;5142176;27;39494;-60
2021/05/20 10:22:21;;;;;;;4.07;2.03;;;;;;;20.11;44.71;100141.13;5177357;27;20030;-61
2021/05/20 10:24:47;;;;;;;5.35;2.10;;;;;;;20.99;44.11;100132.19;5139525;27;33409;-62
2021/05/20 10:27:12;;;;;;;4.75;2.10;;;;;;;21.59;43.52;100130.88;5176493;27;20027;-62
2021/05/20 10:29:38;;;;;;;3.33;2.08;;;;;;;22.13;43.42;100118.75;5140422;27;20035;-63
2021/05/20 10:32:04;;;;;;;6.15;2.20;;;;;;;22.72;42.55;100122.78;5157453;27;20474;-62
2021/05/20 10:34:29;;;;;;;3.20;2.15;;;;;;;23.19;42.10;100116.03;5176564;27;20034;-62
2021/05/20 10:36:59;;;;;;;4.65;2.30;;;;;;;23.61;41.92;100116.16;5158915;27;20497;-62
2021/05/20 10:39:25;;;;;;;3.97;2.50;;;;;;;24.28;42.64;100113.94;5178584;27;20113;-60
2021/05/20 10:41:50;;;;;;;3.38;2.35;;;;;;;24.83;41.54;100116.41;5178282;27;20030;-58
2021/05/20 10:44:17;;;;;;;6.60;3.00;;;;;;;25.11;40.54;100119.75;5178726;27;20027;-54
2021/05/20 10:46:58;;;;;;;7.07;3.28;;;;;;;25.14;39.01;100121.94;5176337;27;20034;-53
2021/05/20 10:49:45;;;;;;;8.25;3.40;;;;;;;24.80;37.65;100119.66;5175938;27;20510;-54
2021/05/20 10:52:35;;;;;;;6.50;3.40;;;;;;;24.50;38.00;100121.13;5175914;27;20427;-56
2021/05/20 10:55:00;;;;;;;;;;;;;;;24.20;37.81;100119.06;5175824;27;20129;-56
2021/05/20 10:57:51;;;;;;;5.85;3.15;;;;;;;23.79;36.87;100135.88;5157697;27;19922;-56
2021/05/20 11:00:34;;;;;;;;;;;;;;;23.11;36.00;100150.72;5177100;27;20106;-57
2021/05/20 11:03:00;;;;;;;7.20;3.42;;;;;;;21.93;35.67;100163.44;5179074;27;19968;-60
2021/05/20 11:05:46;;;;;;;4.75;3.40;;;;;;;20.73;35.54;100142.50;5178966;27;20027;-64
2021/05/20 11:08:27;;;;;;;4.95;3.40;;;;;;;19.88;36.59;100133.00;5145611;27;20035;-59
2021/05/20 11:10:53;;;;;;;6.28;4.07;;;;;;;19.30;37.69;100132.63;5157540;27;20035;-61
2021/05/20 11:13:37;;;;;;;4.95;3.45;;;;;;;18.91;39.16;100137.47;5156915;27;40448;-56
2021/05/20 11:16:27;;;;;;;5.75;3.13;;;;;;;18.51;39.65;100136.03;5138117;27;20540;-56
2021/05/20 11:18:52;;;;;;;5.05;3.00;;;;;;;18.23;40.77;100134.66;5157809;27;20027;-56
2021/05/20 11:21:18;;;;;;;5.03;2.42;;;;;;;18.22;41.92;100133.00;5157226;27;20031;-57
2021/05/20 11:23:44;;;;;;;5.88;2.90;;;;;;;18.44;43.04;100129.88;5157637;27;20032;-56
2021/05/20 11:26:17;;;;;;;4.57;2.50;;;;;;;18.97;43.72;100130.34;5138799;27;20029;-58
2021/05/20 11:28:47;;;;;;;4.53;2.10;;;;;;;19.49;44.31;100119.03;5157212;27;20134;-57
2021/05/20 11:31:13;;;;;;;4.28;3.05;;;;;;;20.16;45.80;100118.81;5121338;27;20087;-57
2021/05/20 11:33:56;;;;;;;4.97;2.10;;;;;;;20.96;45.19;100121.84;5139137;27;20486;-56
2021/05/20 11:36:21;;;;;;;3.42;1.90;;;;;;;21.60;44.90;100115.47;5157129;27;20023;-57
2021/05/20 11:38:57;;;;;;;2.33;1.70;;;;;;;21.85;43.25;100119.66;5156691;27;20380;-59
2021/05/20 11:41:23;;;;;;;2.67;1.88;;;;;;;22.11;43.59;100118.97;5157217;27;20034;-58
2021/05/20 11:44:06;;;;;;;4.05;1.70;;;;;;;22.18;42.27;100123.41;5156336;27;20053;-56
2021/05/20 11:46:32;;;;;;;1.92;1.50;;;;;;;21.87;41.31;100114.78;5139218;27;20024;-57
2021/05/20 11:49:01;;;;;;;2.67;1.58;;;;;;;21.73;41.60;100115.13;5157113;27;20071;-56
2021/05/20 11:51:37;;;;;;;3.28;1.70;;;;;;;21.63;41.30;100114.97;5156311;27;20051;-56
2021/05/20 11:54:11;;;;;;;3.10;2.10;;;;;;;21.66;41.53;100110.94;5156559;27;20467;-56
2021/05/20 11:56:43;;;;;;;2.83;2.10;;;;;;;21.58;41.26;100112.16;5157384;27;20039;-55
2021/05/20 11:59:09;;;;;;;3.47;2.10;;;;;;;21.53;41.05;100112.06;5157115;27;20480;-56
2021/05/20 12:01:35;;;;;;;4.57;1.80;;;;;;;21.46;41.07;100112.22;5156875;27;20027;-56
2021/05/20 12:04:05;;;;;;;5.50;2.10;;;;;;;21.48;41.06;100112.78;5156386;27;20019;-56
2021/05/20 12:06:30;;;;;;;2.65;2.25;;;;;;;21.45;41.17;100116.81;5093066;28;20836;-56
2021/05/20 12:09:05;;;;;;;4.57;2.03;;;;;;;21.83;42.10;100108.22;5076195;28;20032;-68
2021/05/20 12:11:30;;;;;;;7.60;2.30;;;;;;;21.84;40.40;100115.31;5108565;28;20076;-63
2021/05/20 12:13:55;;;;;;;2.65;1.95;;;;;;;21.79;40.60;100119.56;5096170;28;20376;-62
2021/05/20 12:16:30;;;;;;;3.40;2.08;;;;;;;21.66;40.10;100136.16;5115628;28;20019;-69
2021/05/20 12:18:57;;;;;;;7.25;1.40;;;;;;;21.47;39.54;100140.94;5115008;28;20086;-62
2021/05/20 12:21:22;;;;;;;2.67;1.50;;;;;;;21.04;38.76;100132.31;5114875;28;20028;-68
2021/05/20 12:23:57;;;;;;;5.35;1.70;;;;;;;20.91;39.46;100138.84;5095152;28;38757;-63
2021/05/20 12:26:26;;;;;;;6.07;1.95;;;;;;;21.06;40.42;100135.59;5114946;28;20086;-64
2021/05/20 12:28:51;;;;;;;3.10;1.53;;;;;;;21.45;40.70;100134.97;5115102;28;20191;-65
2021/05/20 12:31:19;;;;;;;5.10;1.70;;;;;;;21.76;40.39;100130.06;5079475;28;20721;-63
2021/05/20 12:33:46;;;;;;;5.65;1.92;;;;;;;22.07;40.18;100122.44;5114612;28;20111;-63
2021/05/20 12:36:30;;;;;;;4.97;1.98;;;;;;;22.24;39.25;100131.38;5114418;28;20032;-63
2021/05/20 12:38:55;;;;;;;2.60;1.52;;;;;;;22.27;39.61;100122.72;5114985;28;20024;-64
2021/05/20 12:41:21;;;;;;;4.78;1.67;;;;;;;22.48;39.51;100115.75;5095264;28;37763;-62
2021/05/20 12:43:46;;;;;;;5.18;1.50;;;;;;;22.44;38.18;100120.03;5114704;28;20031;-65
2021/05/20 12:46:17;;;;;;;3.53;1.70;;;;;;;22.39;38.50;100110.97;5095338;28;33828;-65
2021/05/20 12:48:56;;;;;;;2.28;1.30;;;;;;;22.40;37.98;100108.00;5114944;28;20032;-63
2021/05/20 12:51:23;;;;;;;7.93;2.17;;;;;;;22.26;37.30;100117.56;5114032;28;20051;-61
2021/05/20 12:53:56;;;;;;;4.40;1.45;;;;;;;21.98;36.76;100122.03;5114531;28;20032;-68
2021/05/20 13:55:58;;;;;;;2.25;1.35;;;;;;;18.09;37.97;100112.38;5189781;27;20345;-65
2021/05/20 13:58:24;;;;;;;7.68;1.60;;;;;;;17.93;38.43;100115.63;5188880;27;26493;-68
2021/05/20 14:00:54;;;;;;;4.75;1.95;;;;;;;17.90;39.76;100113.34;5189417;27;20030;-65
2021/05/20 14:03:20;;;;;;;4.03;1.40;;;;;;;17.87;39.28;100114.63;5195236;27;20035;-65
2021/05/20 14:05:45;;;;;;;2.22;1.35;;;;;;;18.02;40.10;100111.63;5194922;27;20056;-64
2021/05/20 14:08:11;;;;;;;3.10;1.50;;;;;;;18.25;40.38;100110.97;5194662;27;20053;-65
2021/05/20 14:10:36;;;;;;;2.35;1.65;;;;;;;18.49;40.33;100100.34;5193958;27;37501;-67
2021/05/20 14:13:02;;;;;;;2.22;1.63;;;;;;;18.60;40.22;100102.31;5193219;27;20360;-66
2021/05/20 14:15:27;;;;;;;5.68;2.20;;;;;;;18.84;40.84;100096.22;5194927;27;20049;-65
2021/05/20 14:17:53;;;;;;;4.93;1.77;;;;;;;19.19;41.30;100092.88;5193284;27;20033;-64
2021/05/20 14:20:20;;;;;;;5.50;1.67;;;;;;;19.49;41.18;100081.22;5192969;27;20042;-65
2021/05/20 14:22:46;;;;;;;5.07;2.33;;;;;;;19.66;40.39;100081.38;5193913;27;20844;-63
2021/05/20 14:25:12;;;;;;;2.88;1.80;;;;;;;19.53;39.68;100083.22;5194289;27;20071;-63
2021/05/20 14:27:37;;;;;;;2.33;1.40;;;;;;;19.38;39.74;100080.97;5194421;27;20026;-64
2021/05/20 14:30:03;;;;;;;1.38;1.20;;;;;;;19.23;39.74;100081.38;5194377;27;20200;-65
2021/05/20 14:32:29;;;;;;;1.50;1.13;;;;;;;19.22;40.03;100082.44;5194420;27;20035;-64
2021/05/20 14:34:54;;;;;;;1.83;1.20;;;;;;;19.26;40.42;100072.81;5194158;27;21780;-70
2021/05/20 14:37:21;;;;;;;4.30;1.20;;;;;;;19.35;40.46;100083.28;5194419;27;20018;-64
2021/05/20 14:39:47;;;;;;;7.57;1.40;;;;;;;19.33;40.18;100078.13;5194027;27;20036;-68
2021/05/20 14:42:13;;;;;;;2.33;1.20;;;;;;;19.23;39.63;100073.28;5194230;27;20043;-64
2021/05/20 14:44:38;;;;;;;3.05;1.25;;;;;;;19.09;40.03;100088.03;5193125;27;26378;-65
2021/05/20 14:47:04;;;;;;;2.20;1.02;;;;;;;18.94;39.63;100078.47;5174012;27;32228;-65
2021/05/20 14:52:23;;;;;;;2.58;1.20;;;;;;;18.91;40.35;100076.22;5169675;27;20031;-70
2021/05/20 14:55:12;;;;;;;3.42;1.30;;;;;;;18.72;39.48;100083.47;5172074;27;20038;-68
2021/05/20 15:06:18;;;;;;;6.28;1.50;;;;;;;18.73;39.95;100092.41;5165544;27;20499;-64
2021/05/20 15:08:38;;;;;;;2.80;1.40;;;;;;;18.60;39.77;100083.44;5157782;27;20479;-65
2021/05/20 15:13:41;;;;;;;8.07;1.40;;;;;;;18.59;40.41;100091.75;5155270;27;20058;-67
2021/05/20 15:16:14;;;;;;;5.05;1.23;;;;;;;18.66;40.19;100099.75;5158581;27;20049;-63
2021/05/20 15:18:39;;;;;;;5.93;1.40;;;;;;;18.83;40.39;100091.88;5158572;27;20023;-65
2021/05/20 15:21:04;;;;;;;2.50;1.27;;;;;;;18.70;39.43;100090.16;5157811;27;34318;-62
2021/05/20 15:23:30;;;;;;;2.25;1.52;;;;;;;18.49;39.03;100094.94;5156109;27;33637;-61
2021/05/20 15:25:55;;;;;;;4.82;1.48;;;;;;;18.19;39.25;100101.09;5157570;27;38134;-61
2021/05/20 15:28:20;;;;;;;2.47;1.85;;;;;;;18.04;40.53;100108.69;5158711;27;20037;-63
2021/05/20 15:30:46;;;;;;;3.88;1.70;;;;;;;17.98;40.90;100115.00;5157127;27;34883;-63
2021/05/20 15:33:11;;;;;;;4.88;1.70;;;;;;;17.81;40.78;100115.50;5157725;27;38313;-64
2021/05/20 15:35:37;;;;;;;3.53;1.40;;;;;;;17.67;41.14;100105.88;5158283;27;20027;-66
2021/05/20 15:38:02;;;;;;;4.50;2.00;;;;;;;17.48;41.76;100103.13;5157636;27;33904;-65
2021/05/20 15:40:28;;;;;;;4.40;1.45;;;;;;;17.30;41.88;100113.78;5158812;27;20026;-64
2021/05/20 15:42:53;;;;;;;3.72;1.30;;;;;;;17.06;41.92;100111.66;5157661;27;20043;-64
2021/05/20 15:45:19;;;;;;;2.17;1.50;;;;;;;16.78;41.72;100114.63;5158044;27;20114;-67
2021/05/20 15:48:03;;;;;;;1.92;1.45;;;;;;;16.52;42.00;100113.69;5156381;27;32619;-63
2021/05/20 15:50:28;;;;;;;1.52;1.20;;;;;;;16.31;42.28;100117.47;5157928;27;20042;-65
2021/05/20 15:52:56;;;;;;;3.58;1.10;;;;;;;16.34;43.11;100117.03;5157777;27;20070;-65
2021/05/20 15:55:22;;;;;;;3.92;1.20;;;;;;;16.47;43.29;100118.03;5157234;27;20154;-70
2021/05/20 15:57:47;;;;;;;9.93;3.42;;;;;;;16.63;43.91;100122.13;5157615;27;20106;-65
2021/05/20 16:00:13;;;;;;;2.75;1.20;;;;;;;16.78;43.59;100122.69;5156382;27;20031;-65
2021/05/20 16:02:39;;;;;;;2.80;0.90;;;;;;;16.89;43.64;100118.56;5157595;27;20027;-64
2021/05/20 16:05:10;;;;;;;2.20;1.30;;;;;;;16.95;43.60;100112.34;5157851;27;20034;-65
2021/05/20 16:12:45;;;;;;;4.20;1.13;;;;;;;16.77;42.66;100118.34;5157673;27;20031;-63
2021/05/20 16:15:17;;;;;;;2.83;0.90;;;;;;;16.66;42.93;100121.72;5157379;27;20737;-63
2021/05/20 16:17:42;;;;;;;3.42;1.10;;;;;;;16.53;42.99;100126.09;5147470;27;20848;-66
2021/05/20 16:20:08;;;;;;;4.03;0.93;;;;;;;16.40;42.97;100115.38;5136137;27;20053;-68
2021/05/20 16:25:44;;;;;;;3.08;1.27;;;;;;;16.12;42.96;100108.41;5135100;27;20073;-65
2021/05/20 16:36:56;;;;;;;1.98;1.00;;;;;;;15.42;43.46;100110.63;5098949;27;20044;-68
2021/05/20 16:39:21;;;;;;;1.80;1.27;;;;;;;15.31;43.30;100106.66;5134862;27;20084;-66
2021/05/20 16:41:47;;;;;;;1.60;1.17;;;;;;;15.22;43.51;100106.03;5134125;27;20034;-65
2021/05/20 16:44:12;;;;;;;2.67;1.10;;;;;;;15.16;43.83;100109.53;5134622;27;20476;-64
2021/05/20 16:46:38;;;;;;;2.22;1.50;;;;;;;15.10;44.09;100110.34;5133761;27;36104;-66
2021/05/20 16:49:03;;;;;;;2.25;1.33;;;;;;;14.99;43.93;100109.88;5135179;27;20460;-64
2021/05/20 16:51:30;;;;;;;4.32;2.30;;;;;;;14.93;44.49;100105.34;5134450;27;25571;-64
2021/05/20 16:53:56;;;;;;;3.13;1.63;;;;;;;14.80;44.32;100106.09;5133526;27;20043;-69
2021/05/20 16:56:29;;;;;;;8.52;1.67;;;;;;;14.74;44.72;100106.91;5133371;27;20028;-65
2021/05/20 16:58:55;;;;;;;3.97;1.48;;;;;;;14.67;44.80;100111.44;5134937;27;20031;-63
2021/05/20 17:01:20;;;;;;;6.25;1.60;;;;;;;14.59;45.04;100112.38;5132430;27;42662;-67
2021/05/20 17:03:46;;;;;;;6.22;2.25;;;;;;;14.55;45.22;100117.31;5133052;27;20038;-71
2021/05/20 17:06:12;;;;;;;2.28;1.70;;;;;;;14.49;45.67;100103.84;5134488;27;20032;-73
2021/05/20 17:08:37;;;;;;;4.47;2.97;;;;;;;14.44;45.79;100117.88;5134628;27;20063;-65
2021/05/20 17:11:04;;;;;;;3.63;2.25;;;;;;;14.41;46.06;100117.41;5134477;27;36763;-64
2021/05/20 17:13:43;;;;;;;2.90;1.80;;;;;;;14.41;46.24;100118.28;5134689;27;20043;-65
2021/05/20 17:16:09;;;;;;;4.75;2.03;;;;;;;14.40;46.62;100113.91;5133963;27;20103;-65
2021/05/20 17:18:35;;;;;;;2.10;1.45;;;;;;;14.38;46.89;100119.50;5134537;27;20050;-65
2021/05/20 17:21:02;;;;;;;3.67;1.52;;;;;;;14.36;47.17;100118.84;5134821;27;20502;-68
2021/05/20 17:23:28;;;;;;;3.05;1.70;;;;;;;14.34;47.75;100118.22;5147462;27;20040;-66
2021/05/20 17:25:54;;;;;;;3.00;1.77;;;;;;;14.33;47.67;100113.88;5144628;27;20450;-64
2021/05/20 17:28:19;;;;;;;4.30;1.85;;;;;;;14.33;47.92;100105.84;5156550;27;20034;-66
2021/05/20 17:30:45;;;;;;;4.72;2.17;;;;;;;14.33;47.89;100103.16;5156536;27;20023;-65
2021/05/20 17:33:11;;;;;;;5.60;2.28;;;;;;;14.37;48.01;100100.94;5154807;27;20522;-62
2021/05/20 17:35:37;;;;;;;2.78;1.75;;;;;;;14.40;48.20;100113.91;5154338;27;20034;-63
2021/05/20 17:38:02;;;;;;;4.15;2.03;;;;;;;14.43;48.51;100100.13;5154863;27;20045;-64
2021/05/20 17:40:27;;;;;;;6.85;1.98;;;;;;;14.46;48.60;100096.22;5152879;27;35638;-63
2021/05/20 17:42:53;;;;;;;4.28;2.08;;;;;;;14.44;48.47;100101.78;5134567;27;38797;-65
2021/05/20 17:45:18;;;;;;;4.00;1.80;;;;;;;14.43;48.58;100099.31;5134474;27;37089;-66
2021/05/20 17:47:43;;;;;;;3.80;1.60;;;;;;;14.38;48.55;100097.22;5135645;27;20364;-65
2021/05/20 17:50:10;;;;;;;3.58;1.80;;;;;;;14.32;48.59;100098.00;5135082;27;20472;-68
2021/05/20 17:52:36;;;;;;;3.22;1.55;;;;;;;14.20;48.63;100093.19;5135123;27;20441;-62
2021/05/20 17:55:03;;;;;;;3.72;2.45;;;;;;;14.11;48.65;100093.56;5134762;27;20051;-67
2021/05/20 17:57:29;;;;;;;3.33;1.65;;;;;;;14.01;48.75;100101.91;5134712;27;20770;-64
2021/05/20 17:59:57;;;;;;;3.97;1.70;;;;;;;13.94;49.13;100103.72;5135972;27;20028;-65
2021/05/20 18:02:23;;;;;;;7.07;1.58;;;;;;;13.87;49.28;100103.66;5134840;27;20039;-67
2021/05/20 18:04:49;;;;;;;2.45;1.45;;;;;;;13.81;49.38;100107.13;5134871;27;20049;-63
2021/05/20 18:07:14;;;;;;;3.13;1.60;;;;;;;13.73;49.19;100110.75;5135316;27;20042;-70
2021/05/20 18:09:41;;;;;;;3.70;1.50;;;;;;;13.66;49.18;100117.91;5134701;27;32833;-63
2021/05/20 18:12:14;;;;;;;3.08;1.77;;;;;;;13.58;49.10;100120.72;5154034;27;20396;-62
2021/05/20 18:17:32;;;;;;;3.72;1.65;;;;;;;13.45;49.92;100119.59;5145050;27;20053;-64
2021/05/20 18:22:29;;;;;;;3.30;1.60;;;;;;;13.29;50.01;100125.16;5145905;27;20039;-65
2021/05/20 18:24:55;;;;;;;2.10;1.60;;;;;;;13.18;50.24;100119.25;5145244;27;20038;-65
2021/05/20 18:27:21;;;;;;;3.50;1.80;;;;;;;13.15;50.36;100114.31;5144449;27;20041;-67
2021/05/20 18:29:50;;;;;;;3.70;1.90;;;;;;;13.09;49.94;100117.72;5144112;27;20392;-63
2021/05/20 18:32:16;;;;;;;6.53;1.90;;;;;;;13.01;50.50;100110.66;5143651;27;20034;-64
2021/05/20 18:34:43;;;;;;;4.70;1.85;;;;;;;12.94;50.43;100112.41;5142672;27;20093;-64
2021/05/20 18:37:09;;;;;;;4.15;1.90;;;;;;;12.87;50.68;100116.84;5135235;27;20020;-66
2021/05/20 18:39:46;;;;;;;3.80;1.60;;;;;;;12.79;50.53;100122.28;5134717;27;20123;-63
2021/05/20 18:42:16;;;;;;;2.70;1.90;;;;;;;12.74;50.68;100122.88;5136021;27;20038;-64
2021/05/20 18:44:47;;;;;;;2.17;1.60;;;;;;;12.71;50.86;100123.22;5137940;27;20027;-64
2021/05/20 18:47:12;;;;;;;2.70;1.67;;;;;;;12.64;50.90;100124.97;5138387;27;20499;-62
2021/05/20 18:49:38;;;;;;;2.95;2.00;;;;;;;12.54;50.81;100117.25;5137984;27;20069;-62
2021/05/20 18:52:04;;;;;;;7.57;2.33;;;;;;;12.47;51.03;100116.34;5137654;27;33249;-62
2021/05/20 18:54:31;;;;;;;5.35;1.98;;;;;;;12.42;51.93;100111.53;5137557;27;20225;-63
2021/05/20 18:56:57;;;;;;;4.35;2.03;;;;;;;12.36;51.79;100117.63;5138646;27;20447;-62
2021/05/20 18:59:22;;;;;;;5.72;2.10;;;;;;;12.31;52.05;100125.34;5138499;27;20032;-62
2021/05/20 19:01:48;;;;;;;3.60;2.40;;;;;;;12.24;51.31;100121.75;5137706;27;34431;-62
2021/05/20 19:04:15;;;;;;;6.57;3.92;;;;;;;12.19;52.11;100120.47;5138214;27;20063;-63
2021/05/20 19:09:29;;;;;;;4.35;2.05;;;;;;;12.08;52.02;100128.91;5117227;27;20044;-64
2021/05/20 19:11:55;;;;;;;4.88;2.10;;;;;;;12.01;52.28;100128.81;5137665;27;22229;-66
2021/05/20 19:14:20;;;;;;;3.78;2.00;;;;;;;11.94;52.46;100133.22;5136403;27;20027;-66
2021/05/20 19:16:51;;;;;;;4.65;2.42;;;;;;;11.87;52.54;100131.44;5137852;27;20066;-68